Taunton, Minnesota
Current Conditions -  °F | °C
As of 8:13 PM on Friday 28 Nov 2014 (Local Time) from KCNB Reporting Station
Overcast Overcast  
Wind Chill: 12°   Ceiling: 1100
Heat Index: 20°   Visibility: 10mi
Dew Point: 19°   Wind: 7mph
Humidity: 93%   Direction: 130°SE
Pressure: 29.71"   Gusts: NA
Location:  44.59°N, 96.07°W
Report Text: KCNB 290213Z AUTO 13006KT 10SM OVC011 M06/M07 A2971 RMK AO2 T10641073
Loading
Personal Weather Stations






























Interactive Weather Map New forecast layout! Learn more

10-Day Weather Forecast

Advertisements
Track Severe Weather on mobile